createdAt,value
2022-10-18T00:01:54.677Z,28.73
2022-10-18T00:04:27.462Z,28.98
2022-10-18T00:06:59.993Z,28.88
2022-10-18T00:09:32.593Z,27.70
2022-10-18T00:12:05.203Z,26.55
2022-10-18T00:14:37.716Z,28.35
2022-10-18T00:17:10.148Z,27.15
2022-10-18T00:19:42.574Z,27.83
2022-10-18T00:22:14.963Z,27.08
2022-10-18T00:24:47.483Z,28.65
2022-10-18T00:27:20.066Z,27.80
2022-10-18T00:29:53.864Z,28.27
2022-10-18T00:32:27.132Z,27.23
2022-10-18T00:34:59.683Z,28.40
2022-10-18T00:37:34.136Z,28.90
2022-10-18T00:40:07.799Z,27.57
2022-10-18T00:42:40.449Z,26.63
2022-10-18T00:45:19.621Z,26.25
2022-10-18T00:47:59.976Z,25.45
2022-10-18T00:50:35.166Z,25.73
2022-10-18T00:53:13.345Z,24.90
2022-10-18T00:55:46.308Z,25.90
2022-10-18T00:58:20.167Z,26.63
2022-10-18T01:00:52.837Z,26.50
2022-10-18T01:03:25.408Z,27.50
2022-10-18T01:05:58.264Z,26.67
2022-10-18T01:08:37.934Z,26.75
2022-10-18T01:11:26.659Z,24.40
2022-10-18T01:14:04.096Z,25.17
2022-10-18T01:16:52.810Z,24.67
2022-10-18T01:19:48.328Z,26.30
2022-10-18T01:22:25.003Z,24.52
2022-10-18T01:25:10.553Z,25.25
2022-10-18T01:28:03.057Z,23.83
2022-10-18T01:30:54.455Z,23.25
2022-10-18T01:33:34.438Z,24.15
2022-10-18T01:36:32.171Z,24.95
2022-10-18T01:39:10.554Z,24.77
2022-10-18T01:41:45.826Z,25.52
2022-10-18T01:44:24.761Z,25.55
2022-10-18T01:46:58.827Z,24.90
2022-10-18T01:49:31.414Z,25.25
2022-10-18T01:52:04.185Z,26.48
2022-10-18T01:54:39.820Z,26.38
2022-10-18T01:57:29.569Z,26.27
2022-10-18T02:00:15.365Z,24.65
2022-10-18T02:05:44.351Z,24.13
2022-10-18T02:08:39.912Z,24.17
2022-10-18T02:11:16.186Z,23.95
2022-10-18T02:13:56.758Z,24.55
2022-10-18T02:16:48.191Z,23.75
2022-10-18T02:19:39.027Z,25.70
2022-10-18T02:22:13.185Z,25.30
2022-10-18T02:24:50.120Z,24.95
2022-10-18T02:27:23.389Z,24.52
2022-10-18T02:29:55.968Z,25.08
2022-10-18T02:32:39.081Z,24.48
2022-10-18T02:35:19.931Z,23.80
2022-10-18T02:37:54.084Z,24.33
2022-10-18T02:40:27.370Z,25.52
2022-10-18T02:43:00.177Z,24.95
2022-10-18T02:45:34.098Z,25.23
2022-10-18T02:48:07.798Z,24.73
2022-10-18T02:50:40.323Z,24.25
2022-10-18T02:53:12.780Z,24.15
2022-10-18T02:55:45.198Z,23.95
2022-10-18T02:58:17.634Z,22.90
2022-10-18T03:00:51.271Z,22.63
2022-10-18T03:03:23.890Z,22.73
2022-10-18T03:05:56.435Z,22.02
2022-10-18T03:08:28.951Z,24.55
2022-10-18T03:11:01.590Z,21.85
2022-10-18T03:13:34.524Z,22.33
2022-10-18T03:16:07.230Z,21.85
2022-10-18T03:18:39.783Z,23.35
2022-10-18T03:21:12.227Z,22.55
2022-10-18T03:23:45.020Z,22.83
2022-10-18T03:26:17.612Z,22.83
2022-10-18T03:28:50.390Z,22.52
2022-10-18T03:31:22.984Z,21.50
2022-10-18T03:33:55.525Z,22.05
2022-10-18T03:36:28.158Z,21.98
2022-10-18T03:39:01.361Z,22.80
2022-10-18T03:41:34.287Z,22.77
2022-10-18T03:44:06.820Z,23.08
2022-10-18T03:46:39.370Z,22.73
2022-10-18T03:49:12.060Z,23.13
2022-10-18T03:51:44.528Z,23.98
2022-10-18T03:54:17.141Z,21.95
2022-10-18T03:56:49.549Z,23.15
2022-10-18T03:59:23.337Z,24.15
2022-10-18T04:01:55.937Z,24.70
2022-10-18T04:04:28.539Z,23.42
2022-10-18T04:07:01.307Z,24.08
2022-10-18T04:09:33.917Z,24.42
2022-10-18T04:12:06.781Z,25.77
2022-10-18T04:14:39.303Z,23.85
2022-10-18T04:17:12.596Z,26.00
2022-10-18T04:19:45.151Z,26.48
2022-10-18T04:22:17.810Z,25.30
2022-10-18T04:24:50.786Z,25.75
2022-10-18T04:27:23.522Z,25.25
2022-10-18T04:29:56.190Z,24.55
2022-10-18T04:32:29.836Z,23.73
2022-10-18T04:35:03.494Z,24.40
2022-10-18T04:37:36.106Z,21.10
2022-10-18T04:40:10.077Z,24.23
2022-10-18T04:42:42.511Z,22.52
2022-10-18T04:45:15.287Z,23.48
2022-10-18T04:47:47.912Z,23.80
2022-10-18T04:50:20.743Z,23.27
2022-10-18T04:52:53.778Z,22.85
2022-10-18T04:55:26.477Z,21.95
2022-10-18T04:57:58.916Z,22.60
2022-10-18T05:00:31.435Z,22.50
2022-10-18T05:03:04.170Z,22.42
2022-10-18T05:05:49.710Z,22.90
2022-10-18T05:08:30.739Z,22.08
2022-10-18T05:11:04.113Z,22.65
2022-10-18T05:13:38.528Z,21.67
2022-10-18T05:16:11.730Z,23.77
2022-10-18T05:18:44.290Z,23.33
2022-10-18T05:21:17.390Z,23.40
2022-10-18T05:23:49.987Z,23.23
2022-10-18T05:26:22.637Z,22.48
2022-10-18T05:28:55.562Z,22.30
2022-10-18T05:31:28.283Z,21.77
2022-10-18T05:34:02.249Z,20.98
2022-10-18T05:36:34.813Z,21.90
2022-10-18T05:39:07.558Z,20.75
2022-10-18T05:41:40.231Z,20.80
2022-10-18T05:44:12.710Z,20.73
2022-10-18T05:46:45.232Z,20.17
2022-10-18T05:49:17.818Z,21.58
2022-10-18T05:51:50.355Z,21.08
2022-10-18T05:54:23.345Z,21.67
2022-10-18T05:56:55.884Z,20.77
2022-10-18T05:59:28.435Z,19.77
2022-10-18T06:02:01.089Z,18.38
2022-10-18T06:04:35.103Z,18.80
2022-10-18T06:07:10.279Z,17.45
2022-10-18T06:09:42.789Z,17.42
2022-10-18T06:12:15.429Z,17.90
2022-10-18T06:14:49.629Z,17.35
2022-10-18T06:17:22.185Z,17.98
2022-10-18T06:19:54.672Z,16.95
2022-10-18T06:22:27.214Z,17.45
2022-10-18T06:24:59.715Z,18.45
2022-10-18T06:27:35.080Z,17.58
2022-10-18T06:30:08.832Z,17.92
2022-10-18T06:32:41.794Z,18.75
2022-10-18T06:35:14.465Z,18.83
2022-10-18T06:37:47.046Z,18.33
2022-10-18T06:40:19.654Z,17.75
2022-10-18T06:43:00.630Z,17.77
2022-10-18T06:45:39.430Z,18.52
2022-10-18T06:48:11.956Z,17.58
2022-10-18T06:50:57.175Z,17.48
2022-10-18T06:53:32.477Z,16.35
2022-10-18T06:56:08.444Z,16.85
2022-10-18T06:58:41.331Z,16.85
2022-10-18T07:01:16.371Z,16.85
2022-10-18T07:03:52.565Z,17.13
2022-10-18T07:06:25.780Z,18.00
2022-10-18T07:08:58.337Z,18.13
2022-10-18T07:11:30.878Z,15.75
2022-10-18T07:14:05.207Z,16.15
2022-10-18T07:16:37.675Z,16.20
2022-10-18T07:19:10.232Z,15.57
2022-10-18T07:21:42.817Z,14.88
2022-10-18T07:24:15.407Z,15.50
2022-10-18T07:26:48.030Z,16.10
2022-10-18T07:29:20.780Z,16.33
2022-10-18T07:31:53.489Z,16.17
2022-10-18T07:34:26.184Z,17.30
2022-10-18T07:36:58.631Z,16.42
2022-10-18T07:39:31.591Z,15.68
2022-10-18T07:42:04.267Z,16.65
2022-10-18T07:44:36.890Z,16.27
2022-10-18T07:47:09.683Z,15.27
2022-10-18T07:49:43.003Z,15.80
2022-10-18T07:52:15.740Z,16.38
2022-10-18T07:57:26.053Z,14.00
2022-10-18T07:59:59.326Z,15.27
2022-10-18T08:02:32.131Z,15.32
2022-10-18T08:05:05.154Z,18.98
2022-10-18T08:07:38.108Z,18.90
2022-10-18T08:10:11.076Z,20.23
2022-10-18T08:12:43.588Z,20.35
2022-10-18T08:15:16.283Z,19.30
2022-10-18T08:17:48.837Z,21.02
2022-10-18T08:20:30.434Z,23.63
2022-10-18T08:23:05.173Z,23.70
2022-10-18T08:25:37.987Z,22.50
2022-10-18T08:28:10.712Z,23.52
2022-10-18T08:30:43.377Z,24.42
2022-10-18T08:33:15.886Z,24.17
2022-10-18T08:35:57.199Z,30.13
2022-10-18T08:38:31.669Z,29.70
2022-10-18T08:41:22.727Z,36.25
2022-10-18T08:44:03.347Z,32.22
2022-10-18T08:46:45.660Z,34.45
2022-10-18T08:49:29.283Z,32.65
2022-10-18T08:52:11.331Z,40.75
2022-10-18T08:54:59.692Z,40.45
2022-10-18T08:57:33.424Z,39.50
2022-10-18T09:00:16.379Z,38.42
2022-10-18T09:02:49.614Z,39.05
2022-10-18T09:05:26.278Z,37.08
2022-10-18T09:08:12.022Z,34.00
2022-10-18T09:14:05.912Z,40.58
2022-10-18T09:16:56.420Z,42.08
2022-10-18T09:19:43.833Z,45.92
2022-10-18T09:22:19.609Z,43.67
2022-10-18T09:25:23.552Z,41.17
2022-10-18T09:28:07.766Z,45.17
2022-10-18T09:30:47.215Z,41.90
2022-10-18T09:33:32.464Z,43.40
2022-10-18T09:36:09.499Z,39.03
2022-10-18T09:39:01.380Z,40.35
2022-10-18T09:41:41.770Z,41.45
2022-10-18T09:44:22.414Z,45.47
2022-10-18T09:47:03.335Z,41.53
2022-10-18T09:49:43.532Z,42.28
2022-10-18T09:52:21.590Z,38.60
2022-10-18T09:55:01.445Z,38.95
2022-10-18T09:57:44.416Z,40.88
2022-10-18T10:00:25.223Z,37.25
2022-10-18T10:02:59.386Z,40.33
2022-10-18T10:05:31.851Z,42.38
2022-10-18T10:08:05.092Z,40.45
2022-10-18T10:10:41.047Z,42.83
2022-10-18T10:13:23.830Z,41.72
2022-10-18T10:16:02.223Z,42.80
2022-10-18T10:18:38.606Z,41.58
2022-10-18T10:21:16.323Z,41.90
2022-10-18T10:23:57.318Z,40.85
2022-10-18T10:26:34.546Z,41.13
2022-10-18T10:29:44.758Z,41.35
2022-10-18T10:32:20.966Z,39.00
2022-10-18T10:34:54.183Z,38.40
2022-10-18T10:37:31.294Z,41.28
2022-10-18T10:40:20.465Z,40.90
2022-10-18T10:43:19.589Z,44.60
2022-10-18T10:46:09.438Z,45.60
2022-10-18T10:49:21.797Z,46.88
2022-10-18T10:52:08.428Z,46.13
2022-10-18T10:54:51.979Z,46.10
2022-10-18T10:57:28.652Z,45.03
2022-10-18T11:00:02.177Z,47.45
2022-10-18T11:02:37.318Z,48.47
2022-10-18T11:05:24.843Z,47.45
2022-10-18T11:08:02.606Z,44.80
2022-10-18T11:10:48.005Z,45.50
2022-10-18T11:13:47.537Z,45.30
2022-10-18T11:16:34.383Z,48.53
2022-10-18T11:19:30.563Z,47.10
2022-10-18T11:22:10.035Z,47.42
2022-10-18T11:24:42.957Z,46.72
2022-10-18T11:27:36.371Z,47.45
2022-10-18T11:30:28.152Z,44.83
2022-10-18T11:33:01.460Z,44.83
2022-10-18T11:35:46.732Z,46.30
2022-10-18T11:38:27.880Z,46.40
2022-10-18T11:41:29.608Z,48.03
2022-10-18T11:44:10.319Z,47.58
2022-10-18T11:47:12.190Z,49.05
2022-10-18T11:50:00.491Z,46.53
2022-10-18T11:53:03.752Z,47.70
2022-10-18T11:55:37.266Z,46.50
2022-10-18T11:58:29.342Z,46.00
2022-10-18T12:01:24.600Z,47.97
2022-10-18T12:04:22.063Z,46.30
2022-10-18T12:06:56.781Z,47.90
2022-10-18T12:09:32.114Z,47.75
2022-10-18T12:14:59.468Z,48.28
2022-10-18T12:17:46.162Z,45.58
2022-10-18T12:20:26.410Z,43.17
2022-10-18T12:23:03.934Z,46.97
2022-10-18T12:25:40.888Z,46.95
2022-10-18T12:28:23.262Z,44.67
2022-10-18T12:31:19.726Z,43.63
2022-10-18T12:33:57.254Z,44.33
2022-10-18T12:36:54.818Z,44.63
2022-10-18T12:39:43.450Z,47.15
2022-10-18T12:42:28.520Z,44.92
2022-10-18T12:45:18.241Z,43.58
2022-10-18T12:47:51.448Z,48.45
2022-10-18T12:50:32.028Z,48.45
2022-10-18T12:53:06.860Z,46.40
2022-10-18T12:58:26.836Z,47.35
2022-10-18T13:01:02.458Z,45.97
2022-10-18T13:03:42.024Z,45.40
2022-10-18T13:06:14.568Z,46.97
2022-10-18T13:08:48.497Z,46.45
2022-10-18T13:11:31.435Z,47.70
2022-10-18T13:14:19.919Z,49.97
2022-10-18T13:16:54.457Z,47.25
2022-10-18T13:19:27.789Z,47.47
2022-10-18T13:22:13.877Z,45.88
2022-10-18T13:25:12.004Z,49.95
2022-10-18T13:27:56.672Z,49.28
2022-10-18T13:30:42.547Z,48.55
2022-10-18T13:33:28.165Z,49.03
2022-10-18T13:36:22.966Z,48.42
2022-10-18T13:38:57.986Z,47.50
2022-10-18T13:41:56.664Z,45.25
2022-10-18T13:44:34.561Z,44.75
2022-10-18T13:47:08.185Z,41.20
2022-10-18T13:49:44.593Z,44.10
2022-10-18T13:52:46.189Z,41.67
2022-10-18T13:55:42.576Z,44.63
2022-10-18T13:58:19.091Z,44.58
2022-10-18T14:01:22.796Z,42.70
2022-10-18T14:04:12.968Z,47.25
2022-10-18T14:06:48.289Z,49.58
2022-10-18T14:09:32.796Z,49.28
2022-10-18T14:12:41.336Z,49.67
2022-10-18T14:15:23.677Z,47.53
2022-10-18T14:18:05.175Z,48.88
2022-10-18T14:20:55.136Z,49.03
2022-10-18T14:23:41.413Z,46.88
2022-10-18T14:26:20.089Z,48.78
2022-10-18T14:29:16.834Z,48.83
2022-10-18T14:31:54.585Z,46.38
2022-10-18T14:34:27.110Z,46.97
2022-10-18T14:36:59.759Z,48.72
2022-10-18T14:39:33.773Z,45.53
2022-10-18T14:42:19.735Z,47.78
2022-10-18T14:44:55.687Z,46.08
2022-10-18T14:47:34.068Z,45.88
2022-10-18T14:50:22.688Z,47.28
2022-10-18T14:52:55.370Z,47.38
2022-10-18T14:55:29.119Z,45.08
2022-10-18T14:58:02.647Z,45.88
2022-10-18T15:00:37.676Z,47.05
2022-10-18T15:03:15.261Z,49.67
2022-10-18T15:05:59.743Z,48.30
2022-10-18T15:08:40.295Z,46.30
2022-10-18T15:11:15.091Z,46.78
2022-10-18T15:13:53.988Z,49.67
2022-10-18T15:16:31.081Z,48.65
2022-10-18T15:19:19.300Z,49.45
2022-10-18T15:22:03.202Z,49.08
2022-10-18T15:25:07.642Z,49.17
2022-10-18T15:30:23.262Z,48.67
2022-10-18T15:32:59.149Z,46.10
2022-10-18T15:35:35.242Z,48.65
2022-10-18T15:38:27.436Z,47.85
2022-10-18T15:41:00.003Z,45.60
2022-10-18T15:43:34.906Z,44.42
2022-10-18T15:46:27.481Z,45.60
2022-10-18T15:49:39.833Z,45.38
2022-10-18T15:52:35.246Z,41.88
2022-10-18T15:55:31.099Z,41.03
2022-10-18T15:58:06.053Z,36.92
2022-10-18T16:00:39.201Z,37.03
2022-10-18T16:03:13.091Z,35.47
2022-10-18T16:05:45.904Z,33.35
2022-10-18T16:08:21.048Z,33.65
2022-10-18T16:10:53.651Z,33.03
2022-10-18T16:13:27.623Z,33.95
2022-10-18T16:16:00.364Z,36.13
2022-10-18T16:18:34.309Z,35.10
2022-10-18T16:21:16.398Z,35.38
2022-10-18T16:23:49.643Z,35.20
2022-10-18T16:26:23.209Z,35.50
2022-10-18T16:28:57.483Z,35.63
2022-10-18T16:31:34.630Z,35.47
2022-10-18T16:34:11.385Z,34.15
2022-10-18T16:36:44.012Z,34.90
2022-10-18T16:39:19.698Z,37.60
2022-10-18T16:41:52.463Z,36.75
2022-10-18T16:44:25.749Z,36.22
2022-10-18T16:46:58.572Z,37.05
2022-10-18T16:49:31.973Z,36.40
2022-10-18T16:52:04.889Z,37.22
2022-10-18T16:54:37.424Z,37.72
2022-10-18T16:57:13.106Z,37.25
2022-10-18T16:59:45.907Z,35.85
2022-10-18T17:02:18.420Z,40.05
2022-10-18T17:04:51.264Z,40.22
2022-10-18T17:07:25.489Z,41.38
2022-10-18T17:09:58.197Z,38.53
2022-10-18T17:12:30.793Z,40.55
2022-10-18T17:15:03.991Z,41.33
2022-10-18T17:17:37.434Z,40.45
2022-10-18T17:20:18.824Z,40.80
2022-10-18T17:22:51.405Z,40.95
2022-10-18T17:25:24.146Z,40.17
2022-10-18T17:27:56.880Z,40.03
2022-10-18T17:30:29.662Z,41.50
2022-10-18T17:33:02.637Z,41.50
2022-10-18T17:35:35.401Z,42.33
2022-10-18T17:38:08.376Z,42.35
2022-10-18T17:40:42.764Z,42.17
2022-10-18T17:43:15.373Z,42.97
2022-10-18T17:45:51.512Z,40.78
2022-10-18T17:48:24.790Z,40.90
2022-10-18T17:50:57.553Z,41.33
2022-10-18T17:53:31.105Z,42.17
2022-10-18T17:56:05.309Z,41.67
2022-10-18T17:58:38.024Z,43.15
2022-10-18T18:01:13.161Z,43.65
2022-10-18T18:03:47.906Z,44.10
2022-10-18T18:06:23.594Z,45.63
2022-10-18T18:08:56.561Z,45.90
2022-10-18T18:11:29.713Z,46.55
2022-10-18T18:14:02.882Z,47.38
2022-10-18T18:16:37.240Z,46.78
2022-10-18T18:19:11.310Z,44.33
2022-10-18T18:21:44.008Z,45.67
2022-10-18T18:24:17.920Z,46.80
2022-10-18T18:26:53.418Z,46.78
2022-10-18T18:29:28.040Z,45.85
2022-10-18T18:32:01.076Z,48.28
2022-10-18T18:34:34.337Z,45.80
2022-10-18T18:37:08.746Z,47.88
2022-10-18T18:39:41.364Z,45.67
2022-10-18T18:42:15.047Z,46.60
2022-10-18T18:44:47.795Z,46.78
2022-10-18T18:47:23.709Z,47.22
2022-10-18T18:49:56.486Z,46.97
2022-10-18T18:52:29.901Z,47.92
2022-10-18T18:55:02.560Z,46.45
2022-10-18T18:57:35.287Z,46.08
2022-10-18T19:00:10.687Z,49.28
2022-10-18T19:05:15.990Z,48.65
2022-10-18T19:07:48.858Z,47.25
2022-10-18T19:10:21.584Z,48.67
2022-10-18T19:12:54.696Z,45.53
2022-10-18T19:15:27.449Z,47.75
2022-10-18T19:18:00.152Z,49.35
2022-10-18T19:20:32.730Z,47.55
2022-10-18T19:23:05.477Z,48.85
2022-10-18T19:25:38.254Z,49.33
2022-10-18T19:28:11.378Z,47.25
2022-10-18T19:30:49.217Z,47.55
2022-10-18T19:33:41.077Z,47.50
2022-10-18T19:36:15.795Z,49.00
2022-10-18T19:38:48.361Z,48.58
2022-10-18T19:41:21.694Z,44.95
2022-10-18T19:43:54.701Z,48.70
2022-10-18T19:46:27.649Z,48.40
2022-10-18T19:49:00.348Z,50.47
2022-10-18T19:51:33.317Z,48.35
2022-10-18T19:54:06.552Z,48.25
2022-10-18T19:56:42.029Z,48.13
2022-10-18T20:01:48.724Z,47.70
2022-10-18T20:04:22.242Z,50.38
2022-10-18T20:06:54.994Z,45.25
2022-10-18T20:09:29.548Z,44.95
2022-10-18T20:12:02.304Z,46.63
2022-10-18T20:14:35.758Z,44.05
2022-10-18T20:17:12.266Z,45.03
2022-10-18T20:19:45.848Z,44.40
2022-10-18T20:22:18.570Z,45.47
2022-10-18T20:24:51.319Z,45.42
2022-10-18T20:27:24.169Z,46.22
2022-10-18T20:29:57.979Z,47.00
2022-10-18T20:32:30.705Z,47.50
2022-10-18T20:35:04.521Z,46.22
2022-10-18T20:37:37.508Z,47.70
2022-10-18T20:40:11.857Z,46.92
2022-10-18T20:42:44.529Z,45.85
2022-10-18T20:45:17.497Z,47.25
2022-10-18T20:47:50.233Z,46.58
2022-10-18T20:50:22.977Z,45.25
2022-10-18T20:52:55.559Z,44.42
2022-10-18T20:55:29.760Z,46.08
2022-10-18T20:58:02.274Z,46.55
2022-10-18T21:00:35.497Z,46.63
2022-10-18T21:03:08.250Z,48.08
2022-10-18T21:05:41.006Z,46.00
2022-10-18T21:08:15.959Z,45.90
2022-10-18T21:10:48.768Z,46.03
2022-10-18T21:13:21.422Z,45.35
2022-10-18T21:15:55.566Z,46.90
2022-10-18T21:18:30.618Z,44.95
2022-10-18T21:21:17.072Z,45.50
2022-10-18T21:23:50.768Z,43.08
2022-10-18T21:26:26.259Z,43.83
2022-10-18T21:31:35.341Z,39.65
2022-10-18T21:34:15.473Z,41.58
2022-10-18T21:36:51.903Z,43.53
2022-10-18T21:42:02.489Z,40.88
2022-10-18T21:44:35.365Z,40.05
2022-10-18T21:47:07.967Z,38.63
2022-10-18T21:49:40.655Z,37.58
2022-10-18T21:52:13.313Z,38.58
2022-10-18T21:54:46.014Z,35.30
2022-10-18T21:57:18.603Z,34.05
2022-10-18T21:59:51.111Z,31.10
2022-10-18T22:02:23.694Z,34.25
2022-10-18T22:04:56.464Z,32.15
2022-10-18T22:07:29.133Z,30.60
2022-10-18T22:10:01.748Z,28.75
2022-10-18T22:12:34.342Z,26.75
2022-10-18T22:15:07.490Z,25.90
2022-10-18T22:17:40.074Z,25.48
2022-10-18T22:20:12.992Z,24.70
2022-10-18T22:22:45.806Z,24.20
2022-10-18T22:25:18.409Z,24.48
2022-10-18T22:27:51.068Z,23.45
2022-10-18T22:30:23.627Z,22.10
2022-10-18T22:32:56.335Z,17.40
2022-10-18T22:35:28.870Z,12.10
2022-10-18T22:38:01.449Z,10.65
2022-10-18T22:40:33.962Z,9.77
2022-10-18T22:43:06.498Z,9.35
2022-10-18T22:45:39.949Z,8.88
2022-10-18T22:48:12.674Z,9.02
2022-10-18T22:50:45.316Z,9.30
2022-10-18T22:53:17.857Z,8.65
2022-10-18T22:55:51.377Z,8.65
2022-10-18T22:58:24.120Z,7.65
2022-10-18T23:01:07.319Z,7.90
2022-10-18T23:03:40.349Z,8.40
2022-10-18T23:06:21.963Z,7.65
2022-10-18T23:08:56.830Z,8.00
2022-10-18T23:11:29.779Z,7.50
2022-10-18T23:14:04.024Z,7.70
2022-10-18T23:16:36.626Z,8.23
2022-10-18T23:19:15.888Z,7.25
2022-10-18T23:21:48.489Z,7.07
2022-10-18T23:24:21.084Z,7.85
2022-10-18T23:26:53.791Z,7.75
2022-10-18T23:29:26.507Z,7.57
2022-10-18T23:31:59.116Z,7.10
2022-10-18T23:34:31.751Z,7.70
2022-10-18T23:37:04.454Z,7.50
2022-10-18T23:39:37.057Z,8.40
2022-10-18T23:42:09.641Z,7.40
2022-10-18T23:44:42.186Z,7.15
2022-10-18T23:47:15.968Z,7.05
2022-10-18T23:49:48.716Z,7.60
2022-10-18T23:52:21.502Z,6.53
2022-10-18T23:54:54.253Z,6.38
2022-10-18T23:57:26.922Z,6.28
2022-10-18T23:59:59.807Z,6.43
